Time;durP1;ratioP1;P1;durP2;ratioP2;P2;SDS_P1;SDS_P2;PMS_P1;PMS_P2;Temp;Humidity;BMP_temperature;BMP_pressure;BME280_temperature;BME280_humidity;BME280_pressure;Samples;Min_cycle;Max_cycle;Signal;HPM_P1;HPM_P2
2021/05/29 07:31:33;;;;;;;3.08;1.02;;;;;;;;;;5093255;27;20159;-78
2021/05/29 07:33:59;;;;;;;1.60;1.20;;;;;;;;;;5094949;28;20028;-78
2021/05/29 07:36:25;;;;;;;3.40;1.40;;;;;;;;;;5093036;28;20033;-79
2021/05/29 07:38:51;;;;;;;2.30;1.20;;;;;;;;;;5090089;28;20104;-77
2021/05/29 07:41:18;;;;;;;3.25;1.20;;;;;;;;;;5085282;28;20032;-77
2021/05/29 07:43:44;;;;;;;3.30;1.10;;;;;;;;;;5084710;28;20099;-77
2021/05/29 07:46:10;;;;;;;1.58;1.17;;;;;;;;;;5085003;28;20028;-77
2021/05/29 07:48:37;;;;;;;2.00;1.20;;;;;;;;;;5083444;28;20052;-77
2021/05/29 07:51:04;;;;;;;2.53;1.27;;;;;;;;;;5084133;28;20480;-76
2021/05/29 07:53:40;;;;;;;3.33;0.93;;;;;;;;;;5084917;28;20025;-77
2021/05/29 07:56:07;;;;;;;4.38;1.40;;;;;;;;;;5085285;28;20029;-77
2021/05/29 07:58:34;;;;;;;1.92;0.93;;;;;;;;;;5084570;28;20074;-77
2021/05/29 08:01:00;;;;;;;2.17;1.25;;;;;;;;;;5082636;28;20389;-77
2021/05/29 08:03:27;;;;;;;2.10;1.20;;;;;;;;;;5085652;28;20024;-77
2021/05/29 08:05:54;;;;;;;3.15;1.20;;;;;;;;;;5084475;28;20492;-77
2021/05/29 08:08:21;;;;;;;4.03;0.77;;;;;;;;;;5085077;28;20107;-77
2021/05/29 08:10:49;;;;;;;1.80;0.93;;;;;;;;;;5084432;28;20511;-78
2021/05/29 08:13:15;;;;;;;1.90;0.90;;;;;;;;;;5084553;28;20024;-78
2021/05/29 08:15:41;;;;;;;3.95;1.13;;;;;;;;;;5071635;28;20032;-78
2021/05/29 08:18:08;;;;;;;2.92;1.20;;;;;;;;;;5065175;28;20017;-78
2021/05/29 08:20:35;;;;;;;2.85;1.40;;;;;;;;;;5062257;28;20035;-78
2021/05/29 08:23:01;;;;;;;2.30;0.80;;;;;;;;;;5064104;28;20086;-78
2021/05/29 08:25:27;;;;;;;1.83;1.00;;;;;;;;;;5064030;28;20071;-78
2021/05/29 08:27:53;;;;;;;4.00;1.17;;;;;;;;;;5071449;28;20027;-78
2021/05/29 08:30:19;;;;;;;4.45;1.40;;;;;;;;;;5094682;28;20039;-78
2021/05/29 08:32:45;;;;;;;3.08;0.98;;;;;;;;;;5104445;28;20032;-78
2021/05/29 08:35:12;;;;;;;1.75;1.02;;;;;;;;;;5104580;28;20030;-78
2021/05/29 08:37:40;;;;;;;5.57;1.67;;;;;;;;;;5104715;28;20020;-78
2021/05/29 08:40:07;;;;;;;2.65;1.10;;;;;;;;;;5103667;28;20024;-79
2021/05/29 08:42:33;;;;;;;1.27;1.02;;;;;;;;;;5089234;28;20081;-78
2021/05/29 08:44:59;;;;;;;1.83;0.98;;;;;;;;;;5069846;28;20109;-78
2021/05/29 08:47:26;;;;;;;1.63;1.10;;;;;;;;;;5070482;28;20024;-77
2021/05/29 08:49:52;;;;;;;1.45;0.90;;;;;;;;;;5070949;28;20086;-76
2021/05/29 08:52:18;;;;;;;2.45;0.98;;;;;;;;;;5069896;28;20032;-76
2021/05/29 08:54:44;;;;;;;3.33;1.27;;;;;;;;;;5068648;28;20397;-77
2021/05/29 08:57:10;;;;;;;2.10;1.27;;;;;;;;;;5070650;28;20017;-76
2021/05/29 08:59:37;;;;;;;2.63;0.88;;;;;;;;;;5068507;28;20526;-77
2021/05/29 09:02:04;;;;;;;0.85;0.77;;;;;;;;;;5070491;28;20043;-77
2021/05/29 09:04:30;;;;;;;3.53;1.10;;;;;;;;;;5070370;28;20032;-78
2021/05/29 09:06:56;;;;;;;1.90;1.13;;;;;;;;;;5069943;28;20025;-77
2021/05/29 09:09:22;;;;;;;1.88;1.02;;;;;;;;;;5070336;28;20035;-77
2021/05/29 09:11:50;;;;;;;1.38;0.88;;;;;;;;;;5069026;28;20016;-77
2021/05/29 09:14:22;;;;;;;3.72;1.55;;;;;;;;;;5070424;28;20052;-78
2021/05/29 09:17:05;;;;;;;2.70;1.13;;;;;;;;;;5070597;28;20066;-79
2021/05/29 09:19:50;;;;;;;1.92;1.00;;;;;;;;;;5069620;28;20036;-77
2021/05/29 09:22:17;;;;;;;1.95;1.20;;;;;;;;;;5070149;28;20023;-78
2021/05/29 09:24:55;;;;;;;3.05;1.23;;;;;;;;;;5070448;28;20028;-78
2021/05/29 09:27:21;;;;;;;2.67;1.13;;;;;;;;;;5077441;28;20042;-79
2021/05/29 09:29:47;;;;;;;3.20;0.98;;;;;;;;;;5095790;28;20642;-78
2021/05/29 09:32:13;;;;;;;5.45;1.05;;;;;;;;;;5090123;28;20050;-78
2021/05/29 09:34:45;;;;;;;3.50;1.10;;;;;;;;;;5092384;28;20054;-78
2021/05/29 09:37:14;;;;;;;2.38;1.13;;;;;;;;;;5091995;28;20045;-78
2021/05/29 09:39:42;;;;;;;1.65;1.10;;;;;;;;;;5093746;28;20020;-78
2021/05/29 09:42:09;;;;;;;1.20;0.90;;;;;;;;;;5094135;28;20044;-78
2021/05/29 09:44:36;;;;;;;2.70;1.30;;;;;;;;;;5094494;28;20028;-79
2021/05/29 09:47:04;;;;;;;2.60;0.95;;;;;;;;;;5101740;28;20035;-79
2021/05/29 09:49:50;;;;;;;1.50;1.05;;;;;;;;;;5095932;28;20024;-78
2021/05/29 09:52:25;;;;;;;3.20;1.08;;;;;;;;;;5094638;28;20027;-79
2021/05/29 09:54:56;;;;;;;1.70;0.90;;;;;;;;;;5093082;28;20480;-78
2021/05/29 09:57:22;;;;;;;4.40;1.00;;;;;;;;;;5094918;28;20039;-78
2021/05/29 09:59:58;;;;;;;4.95;1.00;;;;;;;;;;5093497;28;20020;-78
2021/05/29 10:02:25;;;;;;;2.85;1.08;;;;;;;;;;5098879;28;20042;-79
2021/05/29 10:04:55;;;;;;;3.88;0.90;;;;;;;;;;5103087;28;20028;-79
2021/05/29 10:07:22;;;;;;;1.83;0.93;;;;;;;;;;5102940;28;20024;-79
2021/05/29 10:09:48;;;;;;;1.80;0.90;;;;;;;;;;5101593;28;20020;-78
2021/05/29 10:12:15;;;;;;;1.98;1.00;;;;;;;;;;5096091;28;20016;-78
2021/05/29 10:14:41;;;;;;;1.60;0.88;;;;;;;;;;5092971;28;20448;-78
2021/05/29 10:17:09;;;;;;;1.40;0.73;;;;;;;;;;5095184;28;20020;-78
2021/05/29 10:19:36;;;;;;;4.20;0.82;;;;;;;;;;5094472;28;20112;-77
2021/05/29 10:22:07;;;;;;;2.03;0.85;;;;;;;;;;5094825;28;20046;-78
2021/05/29 10:24:33;;;;;;;1.27;0.70;;;;;;;;;;5094847;28;20020;-78
2021/05/29 10:27:03;;;;;;;1.83;0.73;;;;;;;;;;5095838;28;20110;-78
2021/05/29 10:29:29;;;;;;;1.60;0.63;;;;;;;;;;5094347;28;20103;-78
2021/05/29 10:32:10;;;;;;;4.00;0.80;;;;;;;;;;5094983;28;20035;-78
2021/05/29 10:35:05;;;;;;;2.38;0.93;;;;;;;;;;5094345;28;20043;-78
2021/05/29 10:37:39;;;;;;;1.98;0.73;;;;;;;;;;5088903;28;20032;-78
2021/05/29 10:40:13;;;;;;;2.63;0.60;;;;;;;;;;5088640;28;20039;-77
2021/05/29 10:42:40;;;;;;;0.90;0.60;;;;;;;;;;5088552;28;20044;-78
2021/05/29 10:45:18;;;;;;;2.67;0.60;;;;;;;;;;5090049;28;20028;-79
2021/05/29 10:48:00;;;;;;;4.35;0.60;;;;;;;;;;5091315;28;20430;-78
2021/05/29 10:50:53;;;;;;;2.20;0.80;;;;;;;;;;5088481;28;20028;-77
2021/05/29 10:53:34;;;;;;;3.35;0.65;;;;;;;;;;5088836;28;20016;-78
2021/05/29 10:56:18;;;;;;;1.27;0.50;;;16.00;99.90;;;;;;5092376;28;20020;-77
2021/05/29 10:59:15;;;;;;;1.17;0.68;;;26.10;56.30;;;;;;5097507;28;20384;-77
2021/05/29 11:01:45;;;;;;;2.53;0.80;;;27.50;53.80;;;;;;5093908;28;20058;-77
2021/05/29 11:04:22;;;;;;;2.72;1.10;;;28.60;52.60;;;;;;5075644;28;20023;-78
2021/05/29 11:06:55;;;;;;;1.85;0.88;;;28.50;50.80;;;;;;5069506;28;20017;-78
2021/05/29 11:09:27;;;;;;;;;;;27.40;52.90;;;;;;5073491;28;20497;-78
2021/05/29 11:12:19;;;;;;;2.37;0.93;;;25.10;53.50;;;;;;5078274;28;19916;-79
2021/05/29 11:14:54;;;;;;;2.85;0.90;;;26.90;55.40;;;;;;5075038;28;20048;-79
2021/05/29 11:17:21;;;;;;;2.15;0.73;;;26.90;55.20;;;;;;5076732;28;20066;-78
2021/05/29 11:20:17;;;;;;;7.05;1.17;;;27.40;54.20;;;;;;5076256;28;20481;-79
2021/05/29 11:22:49;;;;;;;4.20;1.05;;;27.90;53.50;;;;;;5071989;28;20541;-78
2021/05/29 11:25:18;;;;;;;1.35;0.90;;;27.80;52.60;;;;;;5069893;28;20028;-78
2021/05/29 11:27:46;;;;;;;4.32;0.63;;;28.10;52.90;;;;;;5076002;28;20036;-76
2021/05/29 11:30:19;;;;;;;1.30;0.55;;;;;;;;;;5080611;28;20900;-77
2021/05/29 11:35:25;;;;;;;1.25;0.70;;;;;;;;;;5069674;28;20583;-77
2021/05/29 11:37:59;;;;;;;2.25;0.95;;;;;;;;;;5073600;28;20078;-78
2021/05/29 11:40:40;;;;;;;1.08;0.70;;;;;;;;;;5071606;28;20233;-77
2021/05/29 11:43:06;;;;;;;1.90;0.60;;;28.90;51.90;;;;;;5074657;28;20028;-78
2021/05/29 11:45:31;;;;;;;8.75;0.80;;;28.60;50.70;;;;;;5094494;28;20058;-78
2021/05/29 11:47:57;;;;;;;2.17;1.20;;;28.40;50.80;;;;;;5094963;28;20024;-78
2021/05/29 11:50:23;;;;;;;4.20;1.40;;;28.40;50.50;;;;;;5093326;28;20483;-77
2021/05/29 11:52:48;;;;;;;4.30;0.80;;;28.00;50.10;;;;;;5092171;28;20115;-80
2021/05/29 11:55:15;;;;;;;2.67;0.73;;;27.40;50.30;;;;;;5093190;28;20024;-77
2021/05/29 11:58:00;;;;;;;1.88;0.77;;;26.60;51.40;;;;;;5099716;28;20020;-78
2021/05/29 12:00:27;;;;;;;1.17;0.63;;;25.80;51.70;;;;;;5095896;28;20101;-78
2021/05/29 12:02:53;;;;;;;1.38;0.70;;;26.00;52.60;;;;;;5072828;28;20493;-79
2021/05/29 12:05:20;;;;;;;3.33;0.73;;;26.40;52.00;;;;;;5094865;28;20035;-79
2021/05/29 12:08:03;;;;;;;2.40;0.60;;;26.00;51.30;;;;;;5095302;28;20028;-78
2021/05/29 12:10:47;;;;;;;;;;;25.20;52.50;;;;;;5093668;28;20028;-78
2021/05/29 12:13:28;;;;;;;1.40;0.70;;;24.40;53.20;;;;;;5092578;28;20556;-78
2021/05/29 12:16:02;;;;;;;0.80;0.70;;;23.90;54.10;;;;;;5092127;28;20028;-78
2021/05/29 12:18:38;;;;;;;1.48;0.73;;;24.90;54.90;;;;;;5096968;28;20392;-78
2021/05/29 12:21:06;;;;;;;1.35;0.60;;;26.20;52.20;;;;;;5097833;28;20024;-78
2021/05/29 12:23:50;;;;;;;3.08;0.70;;;27.40;52.30;;;;;;5090423;28;20539;-78
2021/05/29 12:26:18;;;;;;;2.60;0.40;;;27.60;49.50;;;;;;5094479;28;20050;-77
2021/05/29 12:28:44;;;;;;;8.65;0.90;;;26.90;49.40;;;;;;5090693;28;20059;-77
2021/05/29 12:31:09;;;;;;;3.50;1.10;;;25.50;50.10;;;;;;5089718;28;20539;-78
2021/05/29 12:33:35;;;;;;;17.50;2.53;;;24.90;52.50;;;;;;5084519;28;20065;-78
2021/05/29 12:36:10;;;;;;;9.60;0.98;;;24.70;53.10;;;;;;5094841;28;20031;-77
2021/05/29 12:38:36;;;;;;;3.38;1.52;;;24.60;53.30;;;;;;5093702;28;20024;-77
2021/05/29 12:41:11;;;;;;;5.03;1.52;;;24.10;53.80;;;;;;5072022;28;20047;-77
2021/05/29 12:43:38;;;;;;;1.50;0.90;;;24.30;54.50;;;;;;5072386;28;20028;-77
2021/05/29 12:46:07;;;;;;;2.58;0.80;;;25.40;52.00;;;;;;5073953;28;20112;-77
2021/05/29 12:48:32;;;;;;;0.77;0.50;;;27.10;50.20;;;;;;5075693;28;20039;-77
2021/05/29 12:53:34;;;;;;;1.23;0.82;;;29.00;47.70;;;;;;5071533;28;20097;-76
2021/05/29 12:56:12;;;;;;;0.80;0.43;;;30.30;46.30;;;;;;5071280;28;20111;-78
2021/05/29 12:58:38;;;;;;;2.40;0.65;;;30.90;44.60;;;;;;5085278;28;20400;-78
2021/05/29 13:09:22;;;;;;;1.17;0.50;;;29.90;42.70;;;;;;5092425;28;20043;-77
2021/05/29 13:11:48;;;;;;;1.05;0.45;;;29.10;45.10;;;;;;5094210;28;20488;-77
2021/05/29 13:14:28;;;;;;;1.65;0.57;;;29.50;44.30;;;;;;5091839;28;20032;-76
2021/05/29 13:17:00;;;;;;;3.25;0.85;;;30.30;43.20;;;;;;5092683;28;20020;-76
2021/05/29 13:19:51;;;;;;;5.55;0.70;;;31.30;43.80;;;;;;5091221;28;20035;-77
2021/05/29 13:22:28;;;;;;;1.35;0.45;;;32.30;40.50;;;;;;5078853;28;20374;-78
2021/05/29 13:24:59;;;;;;;1.33;0.60;;;32.70;40.30;;;;;;5070960;28;20813;-77
2021/05/29 13:27:36;;;;;;;2.47;0.50;;;32.70;40.80;;;;;;5078043;28;20028;-77
